Updated18/10/2017 23:00 
 

GeoURL
free counters
Scottish Weather Network UK Weather Network Cumulus Top Weather Sites

Peebles Weather - Flight Tracking (FlightRadar)

Raw Data, Raw Data Expanded

Ignore low humidity and Dew Point values. Something wrong with the sensor.
Daytime temperatures are in direct sunlight so may be higher than official air temperature values.

Warnings and solar data not updating. Currently under investigation. (27th Oct 2016)

2017/10/18 21:20 EGPH 182120Z 06008KT 9999 FEW012 BKN021 10/09 Q1009
10.0°C 0.0 mm 1.2 mm 2.1 mm 2.8 mph 4.5 mph 1005.5 hPa 37% X-Ray Solar Flare Level
Planetary K-Index
Planetary K-Index History
Station Warn Rain Snow Flood Wind Ltng Heat Cold Glob Moon Temp Rain 1h Rain Wed Rain 24h Wind 10m Gust Pressure Hum Proton Levels

0.715 m New moon Cool F1-SSW F:73 A:5 Kp:0 SSN:0

Flight Tracking

Map from FlightRadar24

Edinburgh Airport Arrivals/Departures

Data from Flightstats

XHTML 1.1 | CSS